sensor_id;sensor_type;location;lat;lon;timestamp;pressure;altitude;pressure_sealevel;temperature;humidity
54329;BME280;40710;51.120;13.136;2023-08-01T00:00:07;98195.53;;;21.82;62.42
54329;BME280;40710;51.120;13.136;2023-08-01T00:02:33;98192.47;;;21.32;63.77
54329;BME280;40710;51.120;13.136;2023-08-01T00:04:57;98172.78;;;22.01;61.64
54329;BME280;40710;51.120;13.136;2023-08-01T00:07:22;98191.72;;;20.92;65.62
54329;BME280;40710;51.120;13.136;2023-08-01T00:09:47;98173.69;;;20.63;64.77
54329;BME280;40710;51.120;13.136;2023-08-01T00:12:12;98175.66;;;20.77;65.51
54329;BME280;40710;51.120;13.136;2023-08-01T00:14:37;98156.78;;;21.02;63.97
54329;BME280;40710;51.120;13.136;2023-08-01T00:17:02;98139.69;;;21.73;62.02
54329;BME280;40710;51.120;13.136;2023-08-01T00:19:27;98145.78;;;21.20;63.31
54329;BME280;40710;51.120;13.136;2023-08-01T00:21:52;98145.16;;;20.95;64.28
54329;BME280;40710;51.120;13.136;2023-08-01T00:24:16;98128.19;;;21.11;62.59
54329;BME280;40710;51.120;13.136;2023-08-01T00:26:41;98125.47;;;21.34;62.67
54329;BME280;40710;51.120;13.136;2023-08-01T00:29:06;98117.69;;;21.47;62.02
54329;BME280;40710;51.120;13.136;2023-08-01T00:31:31;98114.75;;;21.57;62.60
54329;BME280;40710;51.120;13.136;2023-08-01T00:33:55;98109.06;;;21.90;61.22
54329;BME280;40710;51.120;13.136;2023-08-01T00:36:20;98115.00;;;21.47;62.58
54329;BME280;40710;51.120;13.136;2023-08-01T00:38:45;98120.22;;;21.03;64.08
54329;BME280;40710;51.120;13.136;2023-08-01T00:41:10;98113.84;;;21.27;62.83
54329;BME280;40710;51.120;13.136;2023-08-01T00:43:35;98105.47;;;21.07;63.27
54329;BME280;40710;51.120;13.136;2023-08-01T00:46:00;98103.31;;;21.63;62.41
54329;BME280;40710;51.120;13.136;2023-08-01T00:48:28;98081.94;;;22.08;60.44
54329;BME280;40710;51.120;13.136;2023-08-01T00:50:53;98088.59;;;21.67;61.48
54329;BME280;40710;51.120;13.136;2023-08-01T00:53:19;98078.59;;;22.36;59.53
54329;BME280;40710;51.120;13.136;2023-08-01T00:55:43;98076.03;;;21.98;60.56
54329;BME280;40710;51.120;13.136;2023-08-01T00:58:08;98071.34;;;22.51;59.28
54329;BME280;40710;51.120;13.136;2023-08-01T01:00:32;98084.06;;;21.83;60.97
54329;BME280;40710;51.120;13.136;2023-08-01T01:02:58;98079.72;;;21.97;60.91
54329;BME280;40710;51.120;13.136;2023-08-01T01:05:24;98075.13;;;21.46;61.83
54329;BME280;40710;51.120;13.136;2023-08-01T01:07:49;98086.00;;;21.21;63.65
54329;BME280;40710;51.120;13.136;2023-08-01T01:10:14;98089.00;;;21.03;64.37
54329;BME280;40710;51.120;13.136;2023-08-01T01:12:39;98093.81;;;21.08;64.19
54329;BME280;40710;51.120;13.136;2023-08-01T01:15:04;98110.16;;;20.58;66.20
54329;BME280;40710;51.120;13.136;2023-08-01T01:17:29;98118.50;;;20.55;65.67
54329;BME280;40710;51.120;13.136;2023-08-01T01:19:54;98101.47;;;21.11;63.92
54329;BME280;40710;51.120;13.136;2023-08-01T01:22:19;98104.19;;;21.03;64.71
54329;BME280;40710;51.120;13.136;2023-08-01T01:24:45;98105.56;;;20.13;68.08
54329;BME280;40710;51.120;13.136;2023-08-01T01:27:12;98088.81;;;21.05;64.94
54329;BME280;40710;51.120;13.136;2023-08-01T01:29:40;98066.66;;;21.19;64.56
54329;BME280;40710;51.120;13.136;2023-08-01T01:32:07;98063.63;;;21.22;63.49
54329;BME280;40710;51.120;13.136;2023-08-01T01:34:32;98055.03;;;21.80;63.21
54329;BME280;40710;51.120;13.136;2023-08-01T01:36:56;98083.19;;;20.14;66.80
54329;BME280;40710;51.120;13.136;2023-08-01T01:39:21;98049.47;;;20.75;65.77
54329;BME280;40710;51.120;13.136;2023-08-01T01:41:46;98058.66;;;20.81;66.21
54329;BME280;40710;51.120;13.136;2023-08-01T01:44:10;98045.03;;;20.91;64.95
54329;BME280;40710;51.120;13.136;2023-08-01T01:46:35;98038.34;;;20.95;65.48
54329;BME280;40710;51.120;13.136;2023-08-01T01:48:59;98034.88;;;20.40;67.01
54329;BME280;40710;51.120;13.136;2023-08-01T01:51:28;98042.34;;;20.45;66.70
54329;BME280;40710;51.120;13.136;2023-08-01T01:53:53;98026.91;;;20.86;66.54
54329;BME280;40710;51.120;13.136;2023-08-01T01:56:18;98020.53;;;20.87;66.38
54329;BME280;40710;51.120;13.136;2023-08-01T01:58:43;98028.25;;;20.82;66.68
54329;BME280;40710;51.120;13.136;2023-08-01T02:01:07;98026.78;;;20.80;66.10
54329;BME280;40710;51.120;13.136;2023-08-01T02:03:32;98025.38;;;20.61;66.94
54329;BME280;40710;51.120;13.136;2023-08-01T02:05:56;98013.03;;;20.83;66.64
54329;BME280;40710;51.120;13.136;2023-08-01T02:08:22;98009.53;;;20.67;66.95
54329;BME280;40710;51.120;13.136;2023-08-01T02:10:47;97993.16;;;21.23;65.39
54329;BME280;40710;51.120;13.136;2023-08-01T02:13:12;97983.25;;;20.94;65.29
54329;BME280;40710;51.120;13.136;2023-08-01T02:15:36;97989.63;;;21.08;65.80
54329;BME280;40710;51.120;13.136;2023-08-01T02:18:01;97991.84;;;20.66;67.18
54329;BME280;40710;51.120;13.136;2023-08-01T02:20:26;97980.88;;;20.99;65.79
54329;BME280;40710;51.120;13.136;2023-08-01T02:22:51;97981.34;;;21.03;66.31
54329;BME280;40710;51.120;13.136;2023-08-01T02:25:15;97970.38;;;21.42;64.09
54329;BME280;40710;51.120;13.136;2023-08-01T02:27:40;97971.50;;;21.18;65.13
54329;BME280;40710;51.120;13.136;2023-08-01T02:30:05;97963.09;;;21.21;64.73
54329;BME280;40710;51.120;13.136;2023-08-01T02:32:30;97956.75;;;21.22;65.58
54329;BME280;40710;51.120;13.136;2023-08-01T02:34:54;97957.75;;;21.21;65.61
54329;BME280;40710;51.120;13.136;2023-08-01T02:37:19;97953.41;;;21.80;63.71
54329;BME280;40710;51.120;13.136;2023-08-01T02:39:43;97934.69;;;22.01;62.61
54329;BME280;40710;51.120;13.136;2023-08-01T02:42:08;97933.47;;;21.82;63.17
54329;BME280;40710;51.120;13.136;2023-08-01T02:44:33;97937.03;;;21.23;65.36
54329;BME280;40710;51.120;13.136;2023-08-01T02:46:58;97922.94;;;21.96;62.38
54329;BME280;40710;51.120;13.136;2023-08-01T02:49:22;97922.00;;;22.25;61.71
54329;BME280;40710;51.120;13.136;2023-08-01T02:51:47;97923.63;;;22.04;62.57
54329;BME280;40710;51.120;13.136;2023-08-01T02:54:11;97918.59;;;21.13;64.48
54329;BME280;40710;51.120;13.136;2023-08-01T02:56:36;97916.22;;;21.48;63.62
54329;BME280;40710;51.120;13.136;2023-08-01T02:59:05;97918.78;;;20.82;65.81
54329;BME280;40710;51.120;13.136;2023-08-01T03:01:29;97905.78;;;21.39;64.29
54329;BME280;40710;51.120;13.136;2023-08-01T03:03:54;97900.25;;;21.55;63.04
54329;BME280;40710;51.120;13.136;2023-08-01T03:06:18;97913.72;;;21.17;64.84
54329;BME280;40710;51.120;13.136;2023-08-01T03:08:43;97886.41;;;21.66;63.76
54329;BME280;40710;51.120;13.136;2023-08-01T03:11:08;97895.47;;;20.91;65.34
54329;BME280;40710;51.120;13.136;2023-08-01T03:13:32;97881.53;;;21.92;62.65
54329;BME280;40710;51.120;13.136;2023-08-01T03:15:57;97887.66;;;21.34;64.74
54329;BME280;40710;51.120;13.136;2023-08-01T03:18:21;97875.94;;;21.50;63.84
54329;BME280;40710;51.120;13.136;2023-08-01T03:20:46;97871.50;;;21.57;64.12
54329;BME280;40710;51.120;13.136;2023-08-01T03:23:11;97863.22;;;21.74;63.15
54329;BME280;40710;51.120;13.136;2023-08-01T03:25:37;97858.41;;;21.62;63.77
54329;BME280;40710;51.120;13.136;2023-08-01T03:28:03;97866.34;;;21.77;63.54
54329;BME280;40710;51.120;13.136;2023-08-01T03:30:28;97866.72;;;21.52;63.34
54329;BME280;40710;51.120;13.136;2023-08-01T03:32:53;97864.38;;;21.86;63.64
54329;BME280;40710;51.120;13.136;2023-08-01T03:35:17;97868.06;;;20.97;65.18
54329;BME280;40710;51.120;13.136;2023-08-01T03:37:42;97862.59;;;20.75;66.59
54329;BME280;40710;51.120;13.136;2023-08-01T03:40:07;97847.47;;;21.27;64.59
54329;BME280;40710;51.120;13.136;2023-08-01T03:42:35;97844.59;;;20.54;66.42
54329;BME280;40710;51.120;13.136;2023-08-01T03:45:00;97849.16;;;20.84;65.73
54329;BME280;40710;51.120;13.136;2023-08-01T03:47:25;97851.31;;;20.88;65.82
54329;BME280;40710;51.120;13.136;2023-08-01T03:49:50;97855.75;;;20.43;67.51
54329;BME280;40710;51.120;13.136;2023-08-01T03:52:14;97835.03;;;21.34;64.90
54329;BME280;40710;51.120;13.136;2023-08-01T03:54:39;97846.59;;;20.90;65.93
54329;BME280;40710;51.120;13.136;2023-08-01T03:57:04;97839.72;;;20.81;65.79
54329;BME280;40710;51.120;13.136;2023-08-01T03:59:29;97847.03;;;19.88;69.51
54329;BME280;40710;51.120;13.136;2023-08-01T04:01:53;97841.75;;;20.41;67.74
54329;BME280;40710;51.120;13.136;2023-08-01T04:04:18;97841.88;;;20.10;68.12
54329;BME280;40710;51.120;13.136;2023-08-01T04:06:44;97833.22;;;20.61;67.26
54329;BME280;40710;51.120;13.136;2023-08-01T04:09:09;97830.09;;;20.04;68.33
54329;BME280;40710;51.120;13.136;2023-08-01T04:11:33;97816.00;;;21.08;65.91
54329;BME280;40710;51.120;13.136;2023-08-01T04:13:58;97829.91;;;20.58;66.82
54329;BME280;40710;51.120;13.136;2023-08-01T04:16:22;97822.47;;;20.84;66.59
54329;BME280;40710;51.120;13.136;2023-08-01T04:18:47;97825.28;;;20.52;67.79
54329;BME280;40710;51.120;13.136;2023-08-01T04:21:13;97819.81;;;20.69;67.94
54329;BME280;40710;51.120;13.136;2023-08-01T04:23:38;97828.00;;;20.14;69.21
54329;BME280;40710;51.120;13.136;2023-08-01T04:26:03;97821.63;;;20.53;68.90
54329;BME280;40710;51.120;13.136;2023-08-01T04:28:30;97826.34;;;20.13;69.58
54329;BME280;40710;51.120;13.136;2023-08-01T04:30:54;97814.09;;;20.19;69.99
54329;BME280;40710;51.120;13.136;2023-08-01T04:33:19;97819.38;;;20.65;68.48
54329;BME280;40710;51.120;13.136;2023-08-01T04:35:43;97817.22;;;20.08;70.73
54329;BME280;40710;51.120;13.136;2023-08-01T04:38:08;97812.88;;;20.45;69.34
54329;BME280;40710;51.120;13.136;2023-08-01T04:40:34;97804.97;;;20.66;69.01
54329;BME280;40710;51.120;13.136;2023-08-01T04:42:58;97804.94;;;20.21;69.94
54329;BME280;40710;51.120;13.136;2023-08-01T04:45:23;97798.38;;;20.62;69.72
54329;BME280;40710;51.120;13.136;2023-08-01T04:47:48;97805.41;;;20.02;71.53
54329;BME280;40710;51.120;13.136;2023-08-01T04:50:12;97788.84;;;20.59;69.93
54329;BME280;40710;51.120;13.136;2023-08-01T04:52:37;97781.78;;;20.82;68.99
54329;BME280;40710;51.120;13.136;2023-08-01T04:55:01;97782.03;;;20.42;70.13
54329;BME280;40710;51.120;13.136;2023-08-01T04:57:26;97786.66;;;20.48;69.76
54329;BME280;40710;51.120;13.136;2023-08-01T04:59:51;97779.06;;;20.37;70.19
54329;BME280;40710;51.120;13.136;2023-08-01T05:02:16;97771.63;;;20.47;69.89
54329;BME280;40710;51.120;13.136;2023-08-01T05:04:41;97764.81;;;20.59;69.83
54329;BME280;40710;51.120;13.136;2023-08-01T05:07:06;97772.56;;;20.54;70.70
54329;BME280;40710;51.120;13.136;2023-08-01T05:09:31;97785.34;;;19.45;73.42
54329;BME280;40710;51.120;13.136;2023-08-01T05:11:56;97773.84;;;19.91;72.49
54329;BME280;40710;51.120;13.136;2023-08-01T05:14:21;97762.03;;;19.93;73.23
54329;BME280;40710;51.120;13.136;2023-08-01T05:16:45;97762.72;;;19.64;73.34
54329;BME280;40710;51.120;13.136;2023-08-01T05:19:10;97755.38;;;19.89;72.99
54329;BME280;40710;51.120;13.136;2023-08-01T05:21:35;97767.59;;;19.83;73.15
54329;BME280;40710;51.120;13.136;2023-08-01T05:23:59;97762.31;;;19.52;74.38
54329;BME280;40710;51.120;13.136;2023-08-01T05:26:24;97767.63;;;19.29;75.07
54329;BME280;40710;51.120;13.136;2023-08-01T05:28:49;97732.63;;;20.61;70.84
54329;BME280;40710;51.120;13.136;2023-08-01T05:31:13;97721.91;;;20.91;69.45
54329;BME280;40710;51.120;13.136;2023-08-01T05:33:38;97722.28;;;21.24;68.26
54329;BME280;40710;51.120;13.136;2023-08-01T05:36:03;97714.41;;;21.59;67.04
54329;BME280;40710;51.120;13.136;2023-08-01T05:38:28;97721.34;;;21.32;68.18
54329;BME280;40710;51.120;13.136;2023-08-01T05:40:53;97719.50;;;21.32;68.25
54329;BME280;40710;51.120;13.136;2023-08-01T05:43:17;97717.16;;;21.44;67.18
54329;BME280;40710;51.120;13.136;2023-08-01T05:45:42;97732.41;;;20.92;69.37
54329;BME280;40710;51.120;13.136;2023-08-01T05:48:07;97714.19;;;21.18;68.69
54329;BME280;40710;51.120;13.136;2023-08-01T05:50:31;97714.94;;;20.90;69.29
54329;BME280;40710;51.120;13.136;2023-08-01T05:52:56;97714.16;;;21.32;68.16
54329;BME280;40710;51.120;13.136;2023-08-01T05:55:21;97693.72;;;21.68;66.68
54329;BME280;40710;51.120;13.136;2023-08-01T05:57:46;97699.13;;;21.10;67.65
54329;BME280;40710;51.120;13.136;2023-08-01T06:00:11;97687.13;;;21.92;66.66
54329;BME280;40710;51.120;13.136;2023-08-01T06:02:36;97694.78;;;21.74;67.02
54329;BME280;40710;51.120;13.136;2023-08-01T06:05:01;97693.28;;;21.93;65.44
54329;BME280;40710;51.120;13.136;2023-08-01T06:07:26;97707.44;;;21.00;68.89
54329;BME280;40710;51.120;13.136;2023-08-01T06:09:51;97712.38;;;20.52;69.77
54329;BME280;40710;51.120;13.136;2023-08-01T06:12:18;97688.91;;;22.13;65.92
54329;BME280;40710;51.120;13.136;2023-08-01T06:14:43;97709.19;;;20.93;69.81
54329;BME280;40710;51.120;13.136;2023-08-01T06:17:07;97725.66;;;20.96;70.43
54329;BME280;40710;51.120;13.136;2023-08-01T06:19:32;97688.41;;;22.03;67.06
54329;BME280;40710;51.120;13.136;2023-08-01T06:21:57;97716.91;;;20.51;71.73
54329;BME280;40710;51.120;13.136;2023-08-01T06:24:21;97699.81;;;21.83;68.20
54329;BME280;40710;51.120;13.136;2023-08-01T06:26:46;97704.59;;;21.66;67.90
54329;BME280;40710;51.120;13.136;2023-08-01T06:29:11;97711.06;;;20.92;71.50
54329;BME280;40710;51.120;13.136;2023-08-01T06:31:35;97702.94;;;21.44;69.14
54329;BME280;40710;51.120;13.136;2023-08-01T06:34:00;97711.84;;;21.08;70.69
54329;BME280;40710;51.120;13.136;2023-08-01T06:36:25;97719.13;;;20.48;72.94
54329;BME280;40710;51.120;13.136;2023-08-01T06:38:49;97701.59;;;21.48;69.50
54329;BME280;40710;51.120;13.136;2023-08-01T06:41:14;97687.69;;;21.87;68.20
54329;BME280;40710;51.120;13.136;2023-08-01T06:43:39;97698.63;;;21.64;69.01
54329;BME280;40710;51.120;13.136;2023-08-01T06:46:04;97696.06;;;21.78;68.46
54329;BME280;40710;51.120;13.136;2023-08-01T06:48:28;97719.47;;;20.74;72.08
54329;BME280;40710;51.120;13.136;2023-08-01T06:50:53;97718.22;;;21.28;70.99
54329;BME280;40710;51.120;13.136;2023-08-01T06:53:18;97713.38;;;20.51;72.46
54329;BME280;40710;51.120;13.136;2023-08-01T06:55:42;97731.53;;;20.70;72.03
54329;BME280;40710;51.120;13.136;2023-08-01T06:58:07;97712.91;;;21.35;69.47
54329;BME280;40710;51.120;13.136;2023-08-01T07:00:32;97731.72;;;20.69;73.81
54329;BME280;40710;51.120;13.136;2023-08-01T07:02:57;97734.66;;;21.10;71.12
54329;BME280;40710;51.120;13.136;2023-08-01T07:05:21;97704.59;;;21.66;69.87
54329;BME280;40710;51.120;13.136;2023-08-01T07:07:46;97697.41;;;21.45;68.88
54329;BME280;40710;51.120;13.136;2023-08-01T07:10:11;97708.56;;;21.99;67.02
54329;BME280;40710;51.120;13.136;2023-08-01T07:12:35;97689.84;;;22.27;67.16
54329;BME280;40710;51.120;13.136;2023-08-01T07:15:00;97688.59;;;22.01;67.70
54329;BME280;40710;51.120;13.136;2023-08-01T07:17:24;97690.22;;;21.67;68.15
54329;BME280;40710;51.120;13.136;2023-08-01T07:19:49;97680.53;;;21.45;68.13
54329;BME280;40710;51.120;13.136;2023-08-01T07:22:14;97679.06;;;22.20;67.47
54329;BME280;40710;51.120;13.136;2023-08-01T07:24:39;97685.94;;;21.73;67.41
54329;BME280;40710;51.120;13.136;2023-08-01T07:27:04;97696.97;;;21.42;69.22
54329;BME280;40710;51.120;13.136;2023-08-01T07:29:29;97660.25;;;22.35;66.18
54329;BME280;40710;51.120;13.136;2023-08-01T07:31:54;97680.47;;;21.38;69.49
54329;BME280;40710;51.120;13.136;2023-08-01T07:34:19;97689.69;;;20.92;71.01
54329;BME280;40710;51.120;13.136;2023-08-01T07:36:47;97687.25;;;21.84;67.29
54329;BME280;40710;51.120;13.136;2023-08-01T07:39:13;97691.78;;;21.83;68.54
54329;BME280;40710;51.120;13.136;2023-08-01T07:41:37;97686.13;;;22.28;65.85
54329;BME280;40710;51.120;13.136;2023-08-01T07:44:02;97706.44;;;21.44;67.90
54329;BME280;40710;51.120;13.136;2023-08-01T07:46:27;97680.50;;;21.88;67.44
54329;BME280;40710;51.120;13.136;2023-08-01T07:48:52;97691.53;;;21.50;68.46
54329;BME280;40710;51.120;13.136;2023-08-01T07:51:18;97695.56;;;21.67;68.46
54329;BME280;40710;51.120;13.136;2023-08-01T07:53:42;97715.66;;;21.20;69.49
54329;BME280;40710;51.120;13.136;2023-08-01T07:56:07;97710.84;;;21.30;69.80
54329;BME280;40710;51.120;13.136;2023-08-01T07:58:32;97698.81;;;22.54;66.57
54329;BME280;40710;51.120;13.136;2023-08-01T08:01:02;97712.44;;;21.96;68.02
54329;BME280;40710;51.120;13.136;2023-08-01T08:03:27;97703.91;;;22.14;67.40
54329;BME280;40710;51.120;13.136;2023-08-01T08:05:51;97705.13;;;22.12;67.62
54329;BME280;40710;51.120;13.136;2023-08-01T08:08:16;97715.28;;;21.66;67.67
54329;BME280;40710;51.120;13.136;2023-08-01T08:10:40;97713.81;;;21.85;67.43
54329;BME280;40710;51.120;13.136;2023-08-01T08:13:06;97701.97;;;22.01;66.98
54329;BME280;40710;51.120;13.136;2023-08-01T08:15:30;97710.72;;;21.60;67.51
54329;BME280;40710;51.120;13.136;2023-08-01T08:17:59;97722.19;;;21.54;68.21
54329;BME280;40710;51.120;13.136;2023-08-01T08:20:24;97720.25;;;21.26;68.72
54329;BME280;40710;51.120;13.136;2023-08-01T08:22:48;97723.97;;;22.25;66.38
54329;BME280;40710;51.120;13.136;2023-08-01T08:25:13;97713.13;;;22.05;66.26
54329;BME280;40710;51.120;13.136;2023-08-01T08:27:38;97724.69;;;21.19;68.99
54329;BME280;40710;51.120;13.136;2023-08-01T08:30:03;97739.09;;;21.61;67.74
54329;BME280;40710;51.120;13.136;2023-08-01T08:32:28;97734.19;;;21.65;67.88
54329;BME280;40710;51.120;13.136;2023-08-01T08:34:52;97734.81;;;21.45;69.53
54329;BME280;40710;51.120;13.136;2023-08-01T08:37:17;97741.47;;;20.76;70.36
54329;BME280;40710;51.120;13.136;2023-08-01T08:39:41;97726.53;;;21.55;69.09
54329;BME280;40710;51.120;13.136;2023-08-01T08:42:06;97710.97;;;20.86;71.20
54329;BME280;40710;51.120;13.136;2023-08-01T08:44:35;97688.94;;;21.63;68.06
54329;BME280;40710;51.120;13.136;2023-08-01T08:47:07;97670.44;;;21.62;67.97
54329;BME280;40710;51.120;13.136;2023-08-01T08:49:34;97638.81;;;21.72;67.62
54329;BME280;40710;51.120;13.136;2023-08-01T08:52:00;97625.03;;;21.68;67.43
54329;BME280;40710;51.120;13.136;2023-08-01T08:54:27;97667.06;;;22.09;68.02
54329;BME280;40710;51.120;13.136;2023-08-01T08:56:54;97658.47;;;22.56;65.33
54329;BME280;40710;51.120;13.136;2023-08-01T08:59:21;97656.59;;;21.80;67.48
54329;BME280;40710;51.120;13.136;2023-08-01T09:01:45;97628.97;;;22.49;65.24
54329;BME280;40710;51.120;13.136;2023-08-01T09:04:10;97647.09;;;22.05;66.58
54329;BME280;40710;51.120;13.136;2023-08-01T09:06:40;97628.81;;;22.57;66.21
54329;BME280;40710;51.120;13.136;2023-08-01T09:09:13;97631.47;;;21.81;67.09
54329;BME280;40710;51.120;13.136;2023-08-01T09:11:50;97671.16;;;21.06;68.58
54329;BME280;40710;51.120;13.136;2023-08-01T09:14:16;97607.13;;;23.34;62.57
54329;BME280;40710;51.120;13.136;2023-08-01T09:16:43;97620.94;;;23.24;60.79
54329;BME280;40710;51.120;13.136;2023-08-01T09:19:09;97651.19;;;21.23;67.18
54329;BME280;40710;51.120;13.136;2023-08-01T09:21:35;97657.59;;;21.79;65.96
54329;BME280;40710;51.120;13.136;2023-08-01T09:24:17;97651.78;;;22.87;63.32
54329;BME280;40710;51.120;13.136;2023-08-01T09:26:43;97675.81;;;21.68;65.85
54329;BME280;40710;51.120;13.136;2023-08-01T09:29:08;97661.78;;;21.17;66.94
54329;BME280;40710;51.120;13.136;2023-08-01T09:31:38;97633.91;;;22.10;65.02
54329;BME280;40710;51.120;13.136;2023-08-01T09:34:05;97649.88;;;21.62;66.59
54329;BME280;40710;51.120;13.136;2023-08-01T09:36:34;97661.22;;;21.43;66.63
54329;BME280;40710;51.120;13.136;2023-08-01T09:39:03;97661.38;;;21.91;64.37
54329;BME280;40710;51.120;13.136;2023-08-01T09:41:29;97647.91;;;22.41;64.52
54329;BME280;40710;51.120;13.136;2023-08-01T09:43:54;97646.81;;;22.28;63.68
54329;BME280;40710;51.120;13.136;2023-08-01T09:46:19;97642.16;;;23.06;62.16
54329;BME280;40710;51.120;13.136;2023-08-01T09:48:43;97662.78;;;22.57;62.96
54329;BME280;40710;51.120;13.136;2023-08-01T09:51:09;97656.38;;;23.06;61.43
54329;BME280;40710;51.120;13.136;2023-08-01T09:53:35;97669.38;;;22.19;63.72
54329;BME280;40710;51.120;13.136;2023-08-01T09:56:00;97648.53;;;24.05;60.00
54329;BME280;40710;51.120;13.136;2023-08-01T09:58:33;97653.19;;;22.82;62.45
54329;BME280;40710;51.120;13.136;2023-08-01T10:01:01;97646.06;;;23.63;59.42
54329;BME280;40710;51.120;13.136;2023-08-01T10:03:27;97655.97;;;23.22;62.21
54329;BME280;40710;51.120;13.136;2023-08-01T10:05:54;97652.63;;;22.39;62.35
54329;BME280;40710;51.120;13.136;2023-08-01T10:08:21;97649.78;;;23.15;61.60
54329;BME280;40710;51.120;13.136;2023-08-01T10:10:47;97649.81;;;23.55;60.13
54329;BME280;40710;51.120;13.136;2023-08-01T10:13:13;97640.09;;;23.54;60.48
54329;BME280;40710;51.120;13.136;2023-08-01T10:15:38;97630.78;;;24.69;56.47
54329;BME280;40710;51.120;13.136;2023-08-01T10:18:03;97645.06;;;23.24;60.38
54329;BME280;40710;51.120;13.136;2023-08-01T10:20:30;97646.91;;;23.50;59.53
54329;BME280;40710;51.120;13.136;2023-08-01T10:22:56;97646.69;;;23.72;58.60
54329;BME280;40710;51.120;13.136;2023-08-01T10:25:22;97630.09;;;24.28;57.51
54329;BME280;40710;51.120;13.136;2023-08-01T10:30:26;97632.31;;;25.22;54.58
54329;BME280;40710;51.120;13.136;2023-08-01T10:32:55;97613.41;;;26.41;52.49
54329;BME280;40710;51.120;13.136;2023-08-01T10:35:34;97622.69;;;24.17;56.89
54329;BME280;40710;51.120;13.136;2023-08-01T10:38:10;97637.44;;;24.98;54.00
54329;BME280;40710;51.120;13.136;2023-08-01T10:40:40;97643.91;;;24.39;55.15
54329;BME280;40710;51.120;13.136;2023-08-01T10:43:06;97621.13;;;25.32;52.31
54329;BME280;40710;51.120;13.136;2023-08-01T10:45:43;97641.25;;;24.32;55.19
54329;BME280;40710;51.120;13.136;2023-08-01T10:48:09;97638.44;;;24.65;54.89
54329;BME280;40710;51.120;13.136;2023-08-01T10:50:34;97628.56;;;23.54;56.90
54329;BME280;40710;51.120;13.136;2023-08-01T10:53:08;97647.94;;;23.56;57.00
54329;BME280;40710;51.120;13.136;2023-08-01T10:58:05;97654.06;;;23.03;59.13
54329;BME280;40710;51.120;13.136;2023-08-01T11:00:29;97644.84;;;23.19;59.93
54329;BME280;40710;51.120;13.136;2023-08-01T11:02:54;97627.13;;;23.31;59.60
54329;BME280;40710;51.120;13.136;2023-08-01T11:05:19;97625.44;;;24.04;58.30
54329;BME280;40710;51.120;13.136;2023-08-01T11:07:54;97664.03;;;22.61;62.15
54329;BME280;40710;51.120;13.136;2023-08-01T11:10:20;97663.59;;;22.51;61.94
54329;BME280;40710;51.120;13.136;2023-08-01T11:12:44;97661.72;;;22.44;63.31
54329;BME280;40710;51.120;13.136;2023-08-01T11:15:13;97660.16;;;22.70;63.91
54329;BME280;40710;51.120;13.136;2023-08-01T11:17:39;97657.91;;;22.74;62.56
54329;BME280;40710;51.120;13.136;2023-08-01T11:20:06;97672.53;;;22.30;63.90
54329;BME280;40710;51.120;13.136;2023-08-01T11:22:32;97653.84;;;22.98;62.50
54329;BME280;40710;51.120;13.136;2023-08-01T11:24:57;97659.09;;;23.39;61.79
54329;BME280;40710;51.120;13.136;2023-08-01T11:27:21;97674.53;;;23.24;62.52
54329;BME280;40710;51.120;13.136;2023-08-01T11:29:46;97695.19;;;23.64;62.32
54329;BME280;40710;51.120;13.136;2023-08-01T11:32:10;97643.34;;;24.16;61.81
54329;BME280;40710;51.120;13.136;2023-08-01T11:34:40;97647.81;;;22.82;61.22
54329;BME280;40710;51.120;13.136;2023-08-01T11:37:06;97663.22;;;23.69;61.67
54329;BME280;40710;51.120;13.136;2023-08-01T11:39:30;97679.28;;;23.49;62.06
54329;BME280;40710;51.120;13.136;2023-08-01T11:41:56;97689.41;;;23.53;62.59
54329;BME280;40710;51.120;13.136;2023-08-01T11:44:23;97700.53;;;23.24;62.89
54329;BME280;40710;51.120;13.136;2023-08-01T11:46:48;97709.03;;;22.85;64.28
54329;BME280;40710;51.120;13.136;2023-08-01T11:49:14;97715.19;;;23.68;63.28
54329;BME280;40710;51.120;13.136;2023-08-01T11:51:44;97725.22;;;23.19;63.59
54329;BME280;40710;51.120;13.136;2023-08-01T11:54:09;97736.34;;;23.09;64.53
54329;BME280;40710;51.120;13.136;2023-08-01T11:56:35;97726.34;;;22.83;63.66
54329;BME280;40710;51.120;13.136;2023-08-01T11:59:16;97727.78;;;23.60;63.70
54329;BME280;40710;51.120;13.136;2023-08-01T12:01:43;97728.44;;;23.83;62.06
54329;BME280;40710;51.120;13.136;2023-08-01T12:04:09;97746.59;;;22.99;64.65
54329;BME280;40710;51.120;13.136;2023-08-01T12:06:35;97750.38;;;23.11;64.34
54329;BME280;40710;51.120;13.136;2023-08-01T12:09:31;97753.63;;;22.02;65.56
54329;BME280;40710;51.120;13.136;2023-08-01T12:11:59;97741.75;;;23.29;61.90
54329;BME280;40710;51.120;13.136;2023-08-01T12:14:26;97747.81;;;22.96;63.22
54329;BME280;40710;51.120;13.136;2023-08-01T12:16:52;97746.91;;;23.31;62.42
54329;BME280;40710;51.120;13.136;2023-08-01T12:19:18;97763.81;;;23.31;62.19
54329;BME280;40710;51.120;13.136;2023-08-01T12:21:44;97752.72;;;22.93;62.11
54329;BME280;40710;51.120;13.136;2023-08-01T12:24:09;97755.56;;;22.78;61.99
54329;BME280;40710;51.120;13.136;2023-08-01T12:26:34;97760.41;;;22.61;61.85
54329;BME280;40710;51.120;13.136;2023-08-01T12:28:59;97751.69;;;23.55;59.82
54329;BME280;40710;51.120;13.136;2023-08-01T12:31:23;97754.84;;;23.92;59.41
54329;BME280;40710;51.120;13.136;2023-08-01T12:33:48;97764.88;;;23.37;61.16
54329;BME280;40710;51.120;13.136;2023-08-01T12:36:14;97774.50;;;22.76;61.79
54329;BME280;40710;51.120;13.136;2023-08-01T12:38:38;97771.13;;;23.84;60.22
54329;BME280;40710;51.120;13.136;2023-08-01T12:41:03;97784.69;;;23.43;61.00
54329;BME280;40710;51.120;13.136;2023-08-01T12:43:27;97772.06;;;23.36;60.67
54329;BME280;40710;51.120;13.136;2023-08-01T12:45:52;97769.03;;;22.98;59.82